createdAt,value
2023-03-30T12:02:21.324Z,2.25
2023-03-30T12:04:52.692Z,2.60
2023-03-30T12:07:32.546Z,2.87
2023-03-30T12:10:06.095Z,2.95
2023-03-30T12:12:39.120Z,2.45
2023-03-30T12:15:22.380Z,2.55
2023-03-30T12:17:55.069Z,2.30
2023-03-30T12:20:46.751Z,2.63
2023-03-30T12:23:23.836Z,2.75
2023-03-30T12:26:08.115Z,2.25
2023-03-30T12:29:05.056Z,2.22
2023-03-30T12:32:05.868Z,2.25
2023-03-30T12:34:37.049Z,2.58
2023-03-30T12:37:09.996Z,2.50
2023-03-30T12:39:48.859Z,2.15
2023-03-30T12:42:26.510Z,3.08
2023-03-30T12:45:23.632Z,1.90
2023-03-30T12:48:22.088Z,2.25
2023-03-30T12:51:00.498Z,2.25
2023-03-30T12:54:05.336Z,2.40
2023-03-30T12:56:39.128Z,2.40
2023-03-30T12:59:30.368Z,2.00
2023-03-30T13:02:36.786Z,2.30
2023-03-30T13:05:06.679Z,2.63
2023-03-30T13:07:36.386Z,2.30
2023-03-30T13:10:26.406Z,2.30
2023-03-30T13:12:57.947Z,2.30
2023-03-30T13:15:42.324Z,2.75
2023-03-30T13:18:33.999Z,1.95
2023-03-30T13:21:19.688Z,2.70
2023-03-30T13:24:01.721Z,2.22
2023-03-30T13:26:42.017Z,2.50
2023-03-30T13:29:14.268Z,2.15
2023-03-30T13:34:24.939Z,1.70
2023-03-30T13:37:01.682Z,1.67
2023-03-30T13:39:39.836Z,1.70
2023-03-30T13:42:23.711Z,1.50
2023-03-30T13:45:02.746Z,1.70
2023-03-30T13:47:42.513Z,1.63
2023-03-30T13:50:20.453Z,1.60
2023-03-30T13:52:50.477Z,1.55
2023-03-30T13:55:23.555Z,1.50
2023-03-30T13:57:57.913Z,1.40
2023-03-30T14:00:40.043Z,1.38
2023-03-30T14:03:28.063Z,1.40
2023-03-30T14:06:03.305Z,1.77
2023-03-30T14:08:35.555Z,1.92
2023-03-30T14:11:06.964Z,2.00
2023-03-30T14:13:37.230Z,1.80
2023-03-30T14:16:08.088Z,1.88
2023-03-30T14:18:36.497Z,2.20
2023-03-30T14:21:09.924Z,2.08
2023-03-30T14:23:40.586Z,1.80
2023-03-30T14:26:15.688Z,2.20
2023-03-30T14:28:43.800Z,1.95
2023-03-30T14:31:17.403Z,2.10
2023-03-30T14:33:46.122Z,1.95
2023-03-30T14:36:16.973Z,2.03
2023-03-30T14:38:47.900Z,2.30
2023-03-30T14:41:19.330Z,2.58
2023-03-30T14:43:53.709Z,1.93
2023-03-30T14:46:25.480Z,1.92
2023-03-30T14:48:54.015Z,1.90
2023-03-30T14:51:25.459Z,2.00
2023-03-30T14:53:54.449Z,2.63
2023-03-30T14:56:23.361Z,2.10
2023-03-30T14:58:52.949Z,2.40
2023-03-30T15:01:30.873Z,2.47
2023-03-30T15:04:00.507Z,2.63
2023-03-30T15:06:29.618Z,2.72
2023-03-30T15:09:02.209Z,2.90
2023-03-30T15:11:33.235Z,2.75
2023-03-30T15:14:04.686Z,2.60
2023-03-30T15:16:35.803Z,2.63
2023-03-30T15:19:07.354Z,2.85
2023-03-30T15:21:37.155Z,3.00
2023-03-30T15:24:07.555Z,3.10
